Time;durP1;ratioP1;P1;durP2;ratioP2;P2;SDS_P1;SDS_P2;PMS_P1;PMS_P2;Temp;Humidity;BMP_temperature;BMP_pressure;BME280_temperature;BME280_humidity;BME280_pressure;Samples;Min_cycle;Max_cycle;Signal;HPM_P1;HPM_P2
2023/09/10 00:01:43;;;;;;;9.57;8.70;;;17.00;99.90;;;;;;496552;239;28817;-74
2023/09/10 00:03:44;;;;;;;9.57;8.67;;;17.00;99.90;;;;;;496583;239;29269;-74
2023/09/10 00:05:45;;;;;;;9.37;8.40;;;17.00;99.90;;;;;;496612;239;28919;-76
2023/09/10 00:07:46;;;;;;;9.67;8.00;;;16.90;99.90;;;;;;496567;239;28839;-76
2023/09/10 00:09:48;;;;;;;10.20;8.90;;;16.90;99.90;;;;;;496542;239;28878;-74
2023/09/10 00:11:52;;;;;;;15.23;8.87;;;17.00;99.90;;;;;;496607;239;29311;-76
2023/09/10 00:13:53;;;;;;;8.87;7.97;;;16.90;99.90;;;;;;496544;239;28809;-74
2023/09/10 00:16:00;;;;;;;11.10;8.20;;;17.00;99.90;;;;;;496530;239;28889;-74
2023/09/10 00:18:02;;;;;;;9.33;8.33;;;17.00;99.90;;;;;;496562;239;28818;-74
2023/09/10 00:20:10;;;;;;;10.90;8.70;;;17.00;99.90;;;;;;496540;239;28950;-72
2023/09/10 00:22:10;;;;;;;9.20;8.30;;;17.00;99.90;;;;;;496565;239;28955;-79
2023/09/10 00:24:17;;;;;;;11.53;8.10;;;17.00;99.90;;;;;;496599;239;28792;-76
2023/09/10 00:26:18;;;;;;;10.83;8.97;;;16.90;99.90;;;;;;496590;239;28839;-75
2023/09/10 00:28:23;;;;;;;8.93;8.10;;;16.90;99.90;;;;;;496539;239;29413;-75
2023/09/10 00:30:30;;;;;;;9.80;8.63;;;16.90;99.90;;;;;;496582;239;28867;-78
2023/09/10 00:32:31;;;;;;;15.47;9.20;;;16.90;99.90;;;;;;496591;239;28808;-75
2023/09/10 00:34:36;;;;;;;9.73;8.30;;;16.90;99.90;;;;;;496581;239;29401;-76
2023/09/10 00:36:37;;;;;;;9.73;8.73;;;16.90;99.90;;;;;;496465;239;28850;-76
2023/09/10 00:38:38;;;;;;;8.50;7.60;;;16.80;99.90;;;;;;496607;239;28901;-75
2023/09/10 00:40:39;;;;;;;9.20;8.30;;;16.80;99.90;;;;;;496633;239;29279;-75
2023/09/10 00:42:44;;;;;;;9.13;7.87;;;16.80;99.90;;;;;;496593;239;29292;-76
2023/09/10 00:44:45;;;;;;;8.83;8.00;;;16.80;99.90;;;;;;496589;239;28853;-76
2023/09/10 00:46:52;;;;;;;9.30;8.33;;;16.70;99.90;;;;;;496622;239;28839;-75
2023/09/10 00:48:53;;;;;;;9.70;8.27;;;16.70;99.90;;;;;;496647;239;28803;-74
2023/09/10 00:52:59;;;;;;;10.60;8.60;;;16.60;99.90;;;;;;496622;239;28823;-74
2023/09/10 00:55:00;;;;;;;10.50;9.10;;;16.60;99.90;;;;;;496601;239;29223;-75
2023/09/10 00:57:01;;;;;;;13.33;8.40;;;16.60;99.90;;;;;;496619;239;29301;-74
2023/09/10 00:59:06;;;;;;;9.50;8.50;;;16.60;99.90;;;;;;496431;239;29350;-75
2023/09/10 01:01:08;;;;;;;10.30;9.30;;;16.60;99.90;;;;;;496557;239;28851;-76
2023/09/10 01:05:13;;;;;;;9.67;8.77;;;16.50;99.90;;;;;;496637;239;29006;-75
2023/09/10 01:07:14;;;;;;;9.00;8.10;;;16.50;99.90;;;;;;496626;239;28867;-74
2023/09/10 01:09:15;;;;;;;10.37;9.27;;;16.40;99.90;;;;;;496594;239;28985;-76
2023/09/10 01:11:16;;;;;;;10.47;8.90;;;16.30;99.90;;;;;;496575;239;29331;-75
2023/09/10 01:13:18;;;;;;;16.30;9.27;;;16.30;99.90;;;;;;496613;239;29279;-76
2023/09/10 01:17:23;;;;;;;9.27;8.43;;;16.30;99.90;;;;;;496586;239;28894;-76
2023/09/10 01:19:29;;;;;;;10.10;8.77;;;16.30;99.90;;;;;;496564;239;28904;-74
2023/09/10 01:21:30;;;;;;;8.60;7.70;;;16.30;99.90;;;;;;496633;239;28949;-76
2023/09/10 01:23:37;;;;;;;9.83;7.73;;;16.30;99.90;;;;;;496608;239;29326;-75
2023/09/10 01:25:38;;;;;;;9.33;8.37;;;16.30;99.90;;;;;;496607;239;29240;-73
2023/09/10 01:27:49;;;;;;;10.47;8.70;;;16.30;99.90;;;;;;496567;239;28872;-74
2023/09/10 01:29:50;;;;;;;9.83;8.67;;;16.30;99.90;;;;;;496624;239;28941;-73
2023/09/10 01:33:55;;;;;;;10.03;9.03;;;16.30;99.90;;;;;;496611;239;29304;-75
2023/09/10 01:35:57;;;;;;;8.80;7.90;;;16.30;99.90;;;;;;496557;239;28793;-75
2023/09/10 01:37:58;;;;;;;10.73;8.70;;;16.30;99.90;;;;;;496615;239;28823;-74
2023/09/10 01:39:59;;;;;;;9.30;8.40;;;16.20;99.90;;;;;;496587;239;28920;-75
2023/09/10 01:42:01;;;;;;;9.83;8.83;;;16.20;99.90;;;;;;496560;239;28791;-75
2023/09/10 01:44:02;;;;;;;13.67;8.50;;;16.10;99.90;;;;;;496569;239;28933;-76
2023/09/10 01:46:03;;;;;;;9.37;8.40;;;16.10;99.90;;;;;;496621;239;29382;-75
2023/09/10 01:48:16;;;;;;;8.73;7.90;;;16.00;99.90;;;;;;496604;239;29257;-75
2023/09/10 01:50:18;;;;;;;12.63;8.40;;;16.10;99.90;;;;;;496595;239;28855;-75
2023/09/10 01:52:19;;;;;;;8.37;7.57;;;16.00;99.90;;;;;;496581;239;29396;-74
2023/09/10 01:54:20;;;;;;;9.37;8.40;;;16.00;99.90;;;;;;496581;239;29336;-73
2023/09/10 01:56:22;;;;;;;9.90;8.53;;;16.00;99.90;;;;;;496488;239;29480;-73
2023/09/10 01:58:24;;;;;;;10.27;7.93;;;16.00;99.90;;;;;;496590;239;28896;-76
2023/09/10 02:00:25;;;;;;;11.27;8.17;;;16.00;99.90;;;;;;496595;239;28790;-73
2023/09/10 02:02:26;;;;;;;12.40;8.50;;;15.90;99.90;;;;;;496589;239;28843;-75
2023/09/10 02:04:27;;;;;;;9.40;7.53;;;15.90;99.90;;;;;;496632;239;29456;-75
2023/09/10 02:06:29;;;;;;;9.00;7.57;;;15.90;99.90;;;;;;496626;239;29251;-74
2023/09/10 02:08:36;;;;;;;9.10;8.10;;;15.90;99.90;;;;;;496624;239;29373;-74
2023/09/10 02:10:37;;;;;;;9.43;8.53;;;15.90;99.90;;;;;;496631;239;28819;-76
2023/09/10 02:12:38;;;;;;;8.93;8.03;;;15.90;99.90;;;;;;496619;239;28840;-72
2023/09/10 02:14:39;;;;;;;12.13;7.90;;;15.90;99.90;;;;;;496628;239;29279;-75
2023/09/10 02:16:47;;;;;;;8.70;7.80;;;15.80;99.90;;;;;;496589;239;29279;-75
2023/09/10 02:18:48;;;;;;;9.93;8.50;;;15.80;99.90;;;;;;496634;239;28831;-74
2023/09/10 02:20:55;;;;;;;9.53;7.67;;;15.80;99.90;;;;;;496630;239;29276;-75
2023/09/10 02:22:57;;;;;;;8.97;7.87;;;15.80;99.90;;;;;;496574;239;28806;-73
2023/09/10 02:25:00;;;;;;;8.50;7.60;;;15.80;99.90;;;;;;496619;239;29339;-75
2023/09/10 02:29:03;;;;;;;10.60;7.90;;;15.70;99.90;;;;;;496605;239;28803;-74
2023/09/10 02:31:06;;;;;;;10.90;8.53;;;15.70;99.90;;;;;;496577;239;29336;-75
2023/09/10 02:33:09;;;;;;;8.83;7.93;;;15.70;99.90;;;;;;496604;239;28892;-72
2023/09/10 02:35:08;;;;;;;11.17;9.10;;;15.70;99.90;;;;;;496596;239;28853;-75
2023/09/10 02:37:15;;;;;;;10.40;8.83;;;15.70;99.90;;;;;;496573;239;29257;-74
2023/09/10 02:39:17;;;;;;;10.00;8.77;;;15.70;99.90;;;;;;496568;239;28873;-75
2023/09/10 02:41:21;;;;;;;9.10;8.20;;;15.70;99.90;;;;;;496622;239;29259;-73
2023/09/10 02:43:22;;;;;;;10.57;8.83;;;15.70;99.90;;;;;;496615;239;28858;-73
2023/09/10 02:45:29;;;;;;;11.47;8.37;;;15.70;99.90;;;;;;496590;239;28869;-75
2023/09/10 02:47:31;;;;;;;10.00;9.00;;;15.60;99.90;;;;;;496592;239;28824;-75
2023/09/10 02:49:32;;;;;;;12.40;8.43;;;15.60;99.90;;;;;;496563;239;29788;-78
2023/09/10 02:51:33;;;;;;;11.83;8.40;;;15.60;99.90;;;;;;496632;239;29239;-73
2023/09/10 02:53:49;;;;;;;8.97;8.07;;;15.50;99.90;;;;;;496598;239;29312;-76
2023/09/10 02:55:51;;;;;;;9.23;7.97;;;15.50;99.90;;;;;;496592;239;28836;-75
2023/09/10 02:57:54;;;;;;;11.47;8.53;;;15.50;99.90;;;;;;496532;239;28822;-74
2023/09/10 02:59:55;;;;;;;10.17;8.17;;;15.50;99.90;;;;;;496537;239;28887;-74
2023/09/10 03:01:57;;;;;;;10.00;8.73;;;15.50;99.90;;;;;;496577;239;29329;-76
2023/09/10 03:03:58;;;;;;;8.83;7.93;;;15.50;99.90;;;;;;496554;239;29376;-75
2023/09/10 03:06:00;;;;;;;8.83;7.77;;;15.50;99.90;;;;;;496579;239;28942;-75
2023/09/10 03:08:01;;;;;;;12.40;8.40;;;15.50;99.90;;;;;;496612;239;28838;-75
2023/09/10 03:10:09;;;;;;;10.10;8.33;;;15.50;99.90;;;;;;496584;239;29280;-75
2023/09/10 03:12:10;;;;;;;10.07;9.03;;;15.50;99.90;;;;;;496588;239;28910;-75
2023/09/10 03:14:12;;;;;;;13.50;8.30;;;15.50;99.90;;;;;;496570;239;29390;-72
2023/09/10 03:16:13;;;;;;;10.80;8.00;;;15.40;99.90;;;;;;496600;239;28950;-75
2023/09/10 03:18:18;;;;;;;8.40;7.60;;;15.40;99.90;;;;;;496582;239;29404;-76
2023/09/10 03:20:19;;;;;;;9.20;8.30;;;15.50;99.90;;;;;;496597;239;28954;-75
2023/09/10 03:22:20;;;;;;;9.10;8.20;;;15.40;99.90;;;;;;496555;239;28799;-76
2023/09/10 03:24:22;;;;;;;8.70;7.33;;;15.40;99.90;;;;;;496610;239;28815;-76
2023/09/10 03:26:32;;;;;;;9.73;8.70;;;15.40;99.90;;;;;;496585;239;28926;-76
2023/09/10 03:28:33;;;;;;;8.63;7.83;;;15.40;99.90;;;;;;496570;239;28956;-75
2023/09/10 03:30:34;;;;;;;9.13;8.23;;;15.40;99.90;;;;;;496571;239;28798;-73
2023/09/10 03:32:36;;;;;;;9.97;8.20;;;15.40;99.90;;;;;;496603;239;29361;-73
2023/09/10 03:34:43;;;;;;;8.77;7.97;;;15.40;99.90;;;;;;496569;239;29331;-75
2023/09/10 03:36:44;;;;;;;9.57;8.57;;;15.40;99.90;;;;;;496582;239;29289;-74
2023/09/10 03:38:47;;;;;;;10.00;8.30;;;15.40;99.90;;;;;;496548;239;29308;-72
2023/09/10 03:40:48;;;;;;;10.90;9.10;;;15.40;99.90;;;;;;496630;239;29281;-73
2023/09/10 03:42:58;;;;;;;8.77;7.83;;;15.30;99.90;;;;;;496585;239;29379;-74
2023/09/10 03:45:00;;;;;;;11.23;8.67;;;15.30;99.90;;;;;;496562;239;28849;-76
2023/09/10 03:47:13;;;;;;;11.00;8.60;;;15.30;99.90;;;;;;496593;239;29336;-74
2023/09/10 03:49:14;;;;;;;10.10;8.80;;;15.30;99.90;;;;;;496563;239;28820;-73
2023/09/10 03:51:16;;;;;;;8.23;7.53;;;15.30;99.90;;;;;;496510;239;29382;-75
2023/09/10 03:53:23;;;;;;;10.17;7.60;;;15.30;99.90;;;;;;496573;239;29387;-76
2023/09/10 03:55:24;;;;;;;9.40;8.47;;;15.30;99.90;;;;;;496587;239;28828;-76
2023/09/10 03:57:41;;;;;;;9.20;8.20;;;15.30;99.90;;;;;;496433;239;28866;-76
2023/09/10 03:59:42;;;;;;;10.90;8.87;;;15.30;99.90;;;;;;496565;239;28850;-75
2023/09/10 04:01:43;;;;;;;9.43;8.53;;;15.30;99.90;;;;;;496591;239;29388;-76
2023/09/10 04:03:53;;;;;;;15.03;8.20;;;15.30;99.90;;;;;;496588;239;29268;-74
2023/09/10 04:05:55;;;;;;;11.60;8.80;;;15.20;99.90;;;;;;496593;239;28838;-74
2023/09/10 04:07:57;;;;;;;9.47;8.47;;;15.30;99.90;;;;;;496538;239;29295;-74
2023/09/10 04:09:58;;;;;;;8.40;7.50;;;15.30;99.90;;;;;;496569;239;28937;-75
2023/09/10 04:14:04;;;;;;;9.00;8.10;;;15.20;99.90;;;;;;496538;238;28846;-75
2023/09/10 04:16:05;;;;;;;12.13;8.50;;;15.20;99.90;;;;;;496574;239;28846;-79
2023/09/10 04:18:13;;;;;;;10.20;8.00;;;15.20;99.90;;;;;;496552;239;28880;-75
2023/09/10 04:20:14;;;;;;;9.50;8.60;;;15.20;99.90;;;;;;496518;239;28959;-76
2023/09/10 04:22:15;;;;;;;9.47;8.47;;;15.20;99.90;;;;;;496491;239;29250;-76
2023/09/10 04:24:16;;;;;;;9.23;8.33;;;15.20;99.90;;;;;;496574;239;29281;-75
2023/09/10 04:26:18;;;;;;;8.30;7.50;;;15.20;99.90;;;;;;496571;239;29308;-76
2023/09/10 04:28:19;;;;;;;9.63;8.40;;;15.20;99.90;;;;;;496564;239;28816;-73
2023/09/10 04:30:20;;;;;;;12.83;9.50;;;15.20;99.90;;;;;;496526;239;28837;-73
2023/09/10 04:32:21;;;;;;;9.33;8.37;;;15.20;99.90;;;;;;496593;239;28932;-79
2023/09/10 04:34:29;;;;;;;9.50;8.50;;;15.20;99.90;;;;;;496569;239;29419;-76
2023/09/10 04:36:31;;;;;;;9.70;8.70;;;15.20;99.90;;;;;;496529;239;28935;-76
2023/09/10 04:38:33;;;;;;;10.10;8.70;;;15.00;99.90;;;;;;496584;239;28855;-72
2023/09/10 04:40:43;;;;;;;8.83;8.00;;;15.00;99.90;;;;;;496612;239;29459;-72
2023/09/10 04:42:44;;;;;;;9.57;8.60;;;15.00;99.90;;;;;;496582;239;28943;-73
2023/09/10 04:44:47;;;;;;;9.63;8.63;;;15.00;99.90;;;;;;496597;239;28928;-75
2023/09/10 04:46:54;;;;;;;10.57;9.53;;;15.10;99.90;;;;;;496588;239;29315;-73
2023/09/10 04:48:54;;;;;;;9.57;8.40;;;15.10;99.90;;;;;;496574;239;28856;-73
2023/09/10 04:50:58;;;;;;;11.23;9.33;;;15.10;99.90;;;;;;496564;239;28511;-73
2023/09/10 04:52:59;;;;;;;13.53;8.70;;;15.10;99.90;;;;;;496594;239;28891;-73
2023/09/10 04:55:06;;;;;;;9.43;8.47;;;15.10;99.90;;;;;;496583;239;29315;-76
2023/09/10 04:57:08;;;;;;;9.73;8.80;;;15.10;99.90;;;;;;496575;239;28920;-73
2023/09/10 04:59:18;;;;;;;9.57;8.60;;;15.00;99.90;;;;;;496556;239;28843;-76
2023/09/10 05:01:19;;;;;;;10.37;8.80;;;15.00;99.90;;;;;;496565;239;29375;-73
2023/09/10 05:03:27;;;;;;;9.20;8.30;;;15.10;99.90;;;;;;496529;239;29327;-74
2023/09/10 05:05:28;;;;;;;8.97;8.03;;;15.10;99.90;;;;;;496610;239;28849;-77
2023/09/10 05:07:32;;;;;;;9.43;8.43;;;15.10;99.90;;;;;;496582;239;28509;-74
2023/09/10 05:09:34;;;;;;;9.70;8.40;;;15.10;99.90;;;;;;496591;239;28810;-72
2023/09/10 05:11:47;;;;;;;9.47;8.57;;;15.10;99.90;;;;;;496550;239;28954;-73
2023/09/10 05:13:48;;;;;;;9.43;8.33;;;15.10;99.90;;;;;;496602;239;28842;-73
2023/09/10 05:15:51;;;;;;;10.23;7.87;;;15.10;99.90;;;;;;496563;239;28883;-75
2023/09/10 05:17:51;;;;;;;10.07;8.80;;;15.10;99.90;;;;;;496512;239;28985;-73
2023/09/10 05:19:58;;;;;;;7.87;7.17;;;15.10;99.90;;;;;;496576;239;29279;-75
2023/09/10 05:22:00;;;;;;;11.90;9.53;;;15.10;99.90;;;;;;496604;239;29268;-71
2023/09/10 05:24:16;;;;;;;8.57;7.77;;;15.10;99.90;;;;;;496596;239;29357;-73
2023/09/10 05:26:17;;;;;;;9.37;8.03;;;15.10;99.90;;;;;;496612;239;28862;-76
2023/09/10 05:28:18;;;;;;;10.53;9.53;;;15.20;99.90;;;;;;496581;239;29321;-75
2023/09/10 05:30:20;;;;;;;10.93;8.73;;;15.20;99.90;;;;;;496584;239;29229;-76
2023/09/10 05:32:22;;;;;;;10.13;9.00;;;15.20;99.90;;;;;;496585;239;29320;-73
2023/09/10 05:34:23;;;;;;;11.33;8.47;;;15.10;99.90;;;;;;496603;239;28814;-73
2023/09/10 05:36:40;;;;;;;11.10;9.20;;;15.10;99.90;;;;;;496607;239;29419;-72
2023/09/10 05:38:41;;;;;;;10.53;8.63;;;15.10;99.90;;;;;;496627;239;28936;-74
2023/09/10 05:43:17;;;;;;;13.77;7.83;;;15.20;99.90;;;;;;496622;239;29357;-74
2023/09/10 05:45:25;;;;;;;9.80;8.70;;;15.30;99.90;;;;;;496606;239;28909;-77
2023/09/10 05:47:26;;;;;;;9.27;7.93;;;15.30;99.90;;;;;;496584;239;28811;-76
2023/09/10 05:49:27;;;;;;;8.37;7.57;;;15.40;99.90;;;;;;496611;239;29128;-74
2023/09/10 05:51:29;;;;;;;9.93;8.60;;;15.40;99.90;;;;;;496607;239;29358;-76
2023/09/10 05:53:36;;;;;;;16.83;9.10;;;15.50;99.90;;;;;;496591;239;29270;-75
2023/09/10 05:55:37;;;;;;;11.63;8.30;;;15.50;99.90;;;;;;496592;239;28863;-75
2023/09/10 05:57:38;;;;;;;10.10;8.53;;;15.50;99.90;;;;;;496563;239;29331;-73
2023/09/10 05:59:40;;;;;;;9.53;8.13;;;15.60;99.90;;;;;;496565;239;29306;-75
2023/09/10 06:01:42;;;;;;;10.83;9.30;;;15.60;99.90;;;;;;496621;239;28822;-75
2023/09/10 06:03:43;;;;;;;8.70;7.87;;;15.60;99.90;;;;;;496588;239;29351;-75
2023/09/10 06:07:52;;;;;;;9.33;7.90;;;15.70;99.90;;;;;;496578;239;28836;-75
2023/09/10 06:10:06;;;;;;;9.40;7.63;;;15.70;99.90;;;;;;496618;239;29313;-75
2023/09/10 06:12:05;;;;;;;8.97;8.07;;;15.80;99.90;;;;;;496556;239;29251;-75
2023/09/10 06:14:16;;;;;;;11.20;9.03;;;15.80;99.90;;;;;;496639;239;29229;-75
2023/09/10 06:16:17;;;;;;;13.33;8.70;;;15.90;99.90;;;;;;496611;239;28850;-79
2023/09/10 06:20:23;;;;;;;9.50;8.27;;;16.00;99.90;;;;;;496561;239;28933;-75
2023/09/10 06:22:25;;;;;;;9.70;8.70;;;16.00;99.90;;;;;;496549;239;28909;-75
2023/09/10 06:24:26;;;;;;;12.30;8.40;;;16.00;99.90;;;;;;496592;239;28939;-76
2023/09/10 06:26:27;;;;;;;9.07;8.17;;;16.10;99.90;;;;;;496602;239;29328;-75
2023/09/10 06:28:28;;;;;;;10.10;8.80;;;16.20;99.90;;;;;;496597;239;29365;-76
2023/09/10 06:30:31;;;;;;;9.23;8.33;;;16.30;99.90;;;;;;496563;239;29336;-76
2023/09/10 06:32:33;;;;;;;9.33;8.40;;;16.30;99.90;;;;;;496569;239;28920;-75
2023/09/10 06:34:34;;;;;;;8.67;7.80;;;16.40;99.90;;;;;;496588;239;28839;-76
2023/09/10 06:36:35;;;;;;;9.80;8.00;;;16.40;99.90;;;;;;496627;239;29355;-72
2023/09/10 06:38:36;;;;;;;9.50;8.60;;;16.50;99.90;;;;;;496530;239;29254;-76
2023/09/10 06:40:38;;;;;;;9.27;8.33;;;16.50;99.90;;;;;;496570;239;29455;-74
2023/09/10 06:42:39;;;;;;;8.60;7.80;;;16.60;99.90;;;;;;496589;239;30024;-75
2023/09/10 06:44:43;;;;;;;9.10;8.20;;;16.70;99.90;;;;;;496585;239;28785;-75
2023/09/10 06:46:44;;;;;;;8.03;7.23;;;16.70;99.90;;;;;;496614;239;28983;-75
2023/09/10 06:48:46;;;;;;;8.33;7.53;;;16.80;99.90;;;;;;496595;239;28835;-76
2023/09/10 06:50:47;;;;;;;8.83;7.93;;;16.90;99.90;;;;;;496593;239;29240;-73
2023/09/10 06:52:49;;;;;;;9.00;8.17;;;16.90;99.90;;;;;;496576;239;29330;-74
2023/09/10 06:54:50;;;;;;;12.57;8.60;;;17.00;99.90;;;;;;496604;239;28851;-75
2023/09/10 06:56:55;;;;;;;8.90;8.00;;;17.00;99.90;;;;;;496596;239;29303;-74
2023/09/10 06:58:56;;;;;;;8.40;7.60;;;17.20;99.90;;;;;;496566;239;28843;-75
2023/09/10 07:00:57;;;;;;;7.57;6.77;;;17.20;99.90;;;;;;496562;239;28861;-74
2023/09/10 07:02:58;;;;;;;12.10;7.53;;;17.20;99.90;;;;;;496619;239;28854;-75
2023/09/10 07:05:05;;;;;;;8.77;7.97;;;17.30;99.90;;;;;;496584;239;28924;-75
2023/09/10 07:07:08;;;;;;;7.70;6.90;;;17.40;99.90;;;;;;496585;239;28835;-75
2023/09/10 07:09:11;;;;;;;8.10;7.30;;;17.50;99.90;;;;;;496570;239;28898;-74
2023/09/10 07:11:12;;;;;;;8.57;7.67;;;17.60;99.90;;;;;;496606;239;28858;-75
2023/09/10 07:13:13;;;;;;;9.53;8.70;;;17.70;99.90;;;;;;496546;239;28875;-75
2023/09/10 07:15:14;;;;;;;8.90;8.00;;;17.70;99.90;;;;;;496551;239;29271;-76
2023/09/10 07:17:16;;;;;;;8.93;8.13;;;17.80;99.90;;;;;;496599;239;29372;-76
2023/09/10 07:19:17;;;;;;;10.10;8.60;;;17.80;99.90;;;;;;496555;239;29263;-75
2023/09/10 07:21:30;;;;;;;9.30;8.40;;;17.80;99.90;;;;;;496547;239;28864;-74
2023/09/10 07:23:31;;;;;;;9.10;8.23;;;17.90;99.90;;;;;;496558;239;28815;-73
2023/09/10 07:25:33;;;;;;;9.00;8.10;;;18.00;99.90;;;;;;496576;239;28834;-76
2023/09/10 07:27:34;;;;;;;9.30;8.40;;;18.00;99.90;;;;;;496568;239;29420;-75
2023/09/10 07:29:47;;;;;;;8.40;7.67;;;18.10;99.90;;;;;;496583;239;28870;-74
2023/09/10 07:31:49;;;;;;;9.43;8.63;;;18.20;99.90;;;;;;496553;239;28934;-76
2023/09/10 07:33:50;;;;;;;9.17;8.27;;;18.40;99.90;;;;;;496594;239;28929;-75
2023/09/10 07:36:00;;;;;;;8.80;8.00;;;18.50;99.90;;;;;;496598;239;29321;-74
2023/09/10 07:38:01;;;;;;;10.27;8.20;;;18.60;99.90;;;;;;496553;239;28826;-74
2023/09/10 07:40:13;;;;;;;9.70;8.70;;;18.70;99.90;;;;;;496548;239;29298;-75
2023/09/10 07:42:13;;;;;;;9.63;8.63;;;18.80;99.90;;;;;;496592;239;28828;-74
2023/09/10 07:44:17;;;;;;;8.80;7.90;;;18.90;99.90;;;;;;496592;239;29470;-74
2023/09/10 07:46:18;;;;;;;8.83;7.70;;;19.10;99.90;;;;;;496573;239;28843;-75
2023/09/10 07:48:20;;;;;;;8.60;7.70;;;19.40;99.90;;;;;;496544;239;28801;-75
2023/09/10 07:50:21;;;;;;;8.23;7.40;;;19.50;99.90;;;;;;496591;239;29259;-75
2023/09/10 07:52:29;;;;;;;10.80;8.10;;;19.60;99.90;;;;;;496593;239;29304;-75
2023/09/10 07:54:30;;;;;;;9.27;7.60;;;19.70;99.90;;;;;;496569;239;28812;-75
2023/09/10 07:56:31;;;;;;;8.60;7.53;;;19.80;99.90;;;;;;496578;239;28922;-75
2023/09/10 07:58:32;;;;;;;8.23;7.40;;;19.90;99.90;;;;;;496622;239;28829;-74
2023/09/10 08:00:36;;;;;;;8.70;7.77;;;19.90;99.90;;;;;;496539;239;28800;-74
2023/09/10 08:02:35;;;;;;;9.27;8.37;;;20.00;99.90;;;;;;496537;239;29275;-75
2023/09/10 08:04:36;;;;;;;8.93;8.13;;;20.10;99.90;;;;;;496547;239;30064;-75
2023/09/10 08:06:37;;;;;;;9.90;7.53;;;20.30;99.90;;;;;;496596;239;29340;-75
2023/09/10 08:08:42;;;;;;;8.23;7.43;;;20.30;99.90;;;;;;496581;239;29206;-75
2023/09/10 08:10:43;;;;;;;10.13;9.10;;;20.40;99.90;;;;;;496568;239;28932;-74
2023/09/10 08:12:53;;;;;;;9.50;7.83;;;20.60;99.90;;;;;;496559;239;29245;-75
2023/09/10 08:14:54;;;;;;;10.60;8.60;;;20.60;99.90;;;;;;496592;239;28808;-75
2023/09/10 08:17:04;;;;;;;8.37;7.30;;;20.70;99.90;;;;;;496619;239;29267;-74
2023/09/10 08:19:06;;;;;;;8.77;7.87;;;20.70;99.90;;;;;;496627;239;28902;-75
2023/09/10 08:21:16;;;;;;;9.50;7.90;;;20.90;99.90;;;;;;496605;239;28867;-74
2023/09/10 08:23:17;;;;;;;8.67;7.77;;;21.00;99.90;;;;;;496621;239;28938;-76
2023/09/10 08:25:18;;;;;;;8.73;7.90;;;21.00;99.90;;;;;;496595;239;28787;-76
2023/09/10 08:27:20;;;;;;;11.67;8.63;;;21.10;99.90;;;;;;496592;239;29387;-76
2023/09/10 08:29:27;;;;;;;9.30;8.37;;;21.40;99.90;;;;;;496595;239;29298;-74
2023/09/10 08:31:28;;;;;;;9.30;8.43;;;21.60;99.90;;;;;;496582;239;28894;-74
2023/09/10 08:33:34;;;;;;;9.73;7.80;;;21.60;99.90;;;;;;496559;239;28872;-75
2023/09/10 08:35:36;;;;;;;8.37;7.57;;;21.80;99.90;;;;;;496586;239;28801;-75
2023/09/10 08:39:41;;;;;;;8.90;8.00;;;22.30;99.90;;;;;;496549;239;28940;-75
2023/09/10 08:41:43;;;;;;;10.30;7.80;;;22.60;99.90;;;;;;496598;239;28906;-75
2023/09/10 08:43:47;;;;;;;9.57;7.20;;;23.00;99.90;;;;;;496601;239;29386;-76
2023/09/10 08:45:48;;;;;;;10.53;7.40;;;23.20;99.90;;;;;;496584;239;29052;-75
2023/09/10 08:47:49;;;;;;;9.70;7.30;;;23.40;99.90;;;;;;496567;239;28850;-75
2023/09/10 08:49:51;;;;;;;8.73;7.70;;;23.00;99.90;;;;;;496554;239;30032;-75
2023/09/10 08:51:52;;;;;;;10.90;6.80;;;22.90;99.90;;;;;;496599;239;28896;-73
2023/09/10 08:53:53;;;;;;;9.83;6.53;;;23.00;99.90;;;;;;496581;239;28833;-75
2023/09/10 08:56:08;;;;;;;10.90;8.00;;;23.30;99.90;;;;;;496550;239;29320;-74
2023/09/10 08:58:09;;;;;;;8.23;6.70;;;23.40;99.90;;;;;;496560;239;28868;-75
2023/09/10 09:00:12;;;;;;;7.50;6.37;;;23.30;99.90;;;;;;496579;239;29398;-75
2023/09/10 09:02:10;;;;;;;7.87;7.07;;;23.30;99.90;;;;;;496631;239;29238;-75
2023/09/10 09:04:15;;;;;;;10.40;7.47;;;23.10;99.90;;;;;;496579;239;29370;-75
2023/09/10 09:06:16;;;;;;;11.43;7.67;;;23.40;99.90;;;;;;496621;239;28804;-75
2023/09/10 09:08:23;;;;;;;10.70;6.93;;;23.70;99.90;;;;;;496622;239;29418;-73
2023/09/10 09:10:25;;;;;;;7.67;6.60;;;24.00;99.90;;;;;;496600;239;28802;-75
2023/09/10 09:12:29;;;;;;;8.73;6.80;;;24.10;99.90;;;;;;496596;239;28852;-74
2023/09/10 09:14:30;;;;;;;15.97;6.60;;;23.80;99.90;;;;;;496577;239;28839;-75
2023/09/10 09:16:31;;;;;;;9.00;6.70;;;23.50;99.90;;;;;;496619;239;29386;-75
2023/09/10 09:18:33;;;;;;;11.00;6.43;;;23.50;99.90;;;;;;496626;239;29315;-74
2023/09/10 09:20:34;;;;;;;8.87;7.13;;;23.50;99.90;;;;;;496605;239;29333;-74
2023/09/10 09:22:35;;;;;;;9.80;6.20;;;24.10;99.90;;;;;;496597;239;28808;-74
2023/09/10 09:24:36;;;;;;;21.87;6.83;;;24.10;99.90;;;;;;496621;239;28884;-74
2023/09/10 09:26:39;;;;;;;12.70;6.97;;;24.50;99.90;;;;;;496619;239;28867;-75
2023/09/10 09:28:39;;;;;;;9.03;7.03;;;24.60;99.90;;;;;;496609;239;28843;-73
2023/09/10 09:30:41;;;;;;;10.13;7.00;;;24.60;99.90;;;;;;496579;239;29307;-74
2023/09/10 09:32:43;;;;;;;7.87;7.07;;;24.40;99.90;;;;;;496622;239;29426;-75
2023/09/10 09:34:59;;;;;;;12.40;6.90;;;24.30;99.90;;;;;;496634;239;28858;-76
2023/09/10 09:37:00;;;;;;;7.70;5.90;;;24.40;99.90;;;;;;496572;239;28829;-75
2023/09/10 09:39:02;;;;;;;15.77;6.97;;;24.50;99.90;;;;;;496615;239;28908;-73
2023/09/10 09:41:03;;;;;;;12.87;6.70;;;24.60;99.90;;;;;;496617;239;28854;-74
2023/09/10 09:43:04;;;;;;;13.33;6.90;;;24.90;99.90;;;;;;496616;239;29365;-75
2023/09/10 09:47:09;;;;;;;13.97;6.53;;;24.80;99.90;;;;;;496605;239;29334;-75
2023/09/10 09:49:11;;;;;;;13.87;6.40;;;24.70;99.90;;;;;;496590;239;29422;-76
2023/09/10 09:51:14;;;;;;;12.17;5.90;;;25.00;99.90;;;;;;496624;239;29328;-76
2023/09/10 09:53:16;;;;;;;17.20;6.67;;;24.70;99.90;;;;;;496606;239;28792;-75
2023/09/10 09:55:16;;;;;;;12.23;7.00;;;24.80;99.90;;;;;;496589;239;29322;-74
2023/09/10 09:57:24;;;;;;;11.20;6.50;;;25.00;99.90;;;;;;496564;239;30101;-75
2023/09/10 09:59:25;;;;;;;10.87;6.60;;;24.80;99.90;;;;;;496563;239;28795;-74
2023/09/10 10:03:40;;;;;;;11.60;7.00;;;24.80;99.90;;;;;;496605;239;28892;-75
2023/09/10 10:05:41;;;;;;;14.63;7.10;;;24.60;99.90;;;;;;496613;239;28899;-74
2023/09/10 10:07:43;;;;;;;14.57;6.20;;;24.80;99.90;;;;;;496626;239;28862;-74
2023/09/10 10:09:44;;;;;;;19.07;6.47;;;25.10;99.90;;;;;;496616;239;29706;-75
2023/09/10 10:11:45;;;;;;;9.40;5.47;;;25.10;99.90;;;;;;496643;239;29324;-75
2023/09/10 10:13:55;;;;;;;16.57;6.43;;;25.20;99.90;;;;;;496633;239;29326;-73
2023/09/10 10:15:57;;;;;;;9.67;5.50;;;25.00;99.90;;;;;;496655;239;28822;-74
2023/09/10 10:17:58;;;;;;;17.80;6.00;;;24.80;99.90;;;;;;496615;239;28875;-74
2023/09/10 10:19:59;;;;;;;12.07;5.80;;;25.30;99.90;;;;;;496626;239;28845;-74
2023/09/10 10:22:05;;;;;;;19.17;6.43;;;25.10;99.90;;;;;;496600;239;28853;-75
2023/09/10 10:24:05;;;;;;;14.63;6.57;;;25.00;99.90;;;;;;496578;239;28833;-76
2023/09/10 10:26:06;;;;;;;19.10;6.50;;;25.20;99.90;;;;;;496569;239;29876;-74
2023/09/10 10:28:12;;;;;;;15.07;6.00;;;25.30;99.90;;;;;;496625;239;29308;-75
2023/09/10 10:30:21;;;;;;;11.70;5.63;;;25.40;99.90;;;;;;496582;239;29359;-74
2023/09/10 10:32:22;;;;;;;15.40;6.00;;;25.40;99.90;;;;;;496613;239;28887;-74
2023/09/10 10:34:26;;;;;;;22.13;6.53;;;25.20;99.90;;;;;;496581;239;29339;-77
2023/09/10 10:36:28;;;;;;;14.63;6.20;;;25.20;99.90;;;;;;496648;239;29223;-77
2023/09/10 10:38:36;;;;;;;13.03;6.17;;;25.50;99.90;;;;;;496598;239;29300;-76
2023/09/10 10:40:36;;;;;;;15.63;6.13;;;25.30;99.90;;;;;;496586;239;28818;-76
2023/09/10 10:42:38;;;;;;;13.80;5.83;;;25.70;99.90;;;;;;496618;239;29270;-75
2023/09/10 10:44:44;;;;;;;12.97;6.33;;;25.80;99.90;;;;;;496602;239;29325;-75
2023/09/10 10:46:46;;;;;;;21.13;6.60;;;25.70;99.90;;;;;;496639;239;29276;-74
2023/09/10 10:48:53;;;;;;;12.83;5.47;;;26.00;99.90;;;;;;496595;239;29424;-75
2023/09/10 10:50:54;;;;;;;14.67;5.70;;;26.10;99.90;;;;;;496606;239;29259;-74
2023/09/10 10:52:56;;;;;;;12.80;5.80;;;26.10;99.90;;;;;;496567;239;29293;-76
2023/09/10 10:54:58;;;;;;;15.53;5.87;;;26.00;99.90;;;;;;496602;239;28863;-73
2023/09/10 10:57:09;;;;;;;16.40;6.07;;;25.90;99.90;;;;;;496580;239;29324;-73
2023/09/10 10:59:09;;;;;;;17.47;5.53;;;25.60;99.90;;;;;;496553;239;28856;-74
2023/09/10 11:01:17;;;;;;;12.80;5.80;;;25.60;99.90;;;;;;496645;239;29325;-73
2023/09/10 11:03:18;;;;;;;15.53;5.83;;;25.80;99.90;;;;;;496639;239;28867;-74